sensor_id;sensor_type;location;lat;lon;timestamp;P1;durP1;ratioP1;P2;durP2;ratioP2
34278;SDS011;20538;51.528;9.942;2022-12-07T00:01:32;27.83;;;13.15;;
34278;SDS011;20538;51.528;9.942;2022-12-07T00:04:01;24.38;;;12.68;;
34278;SDS011;20538;51.528;9.942;2022-12-07T00:06:34;30.33;;;13.57;;
34278;SDS011;20538;51.528;9.942;2022-12-07T00:09:01;23.95;;;12.88;;
34278;SDS011;20538;51.528;9.942;2022-12-07T00:11:28;23.70;;;12.35;;
34278;SDS011;20538;51.528;9.942;2022-12-07T00:13:55;22.77;;;12.68;;
34278;SDS011;20538;51.528;9.942;2022-12-07T00:16:24;22.00;;;12.45;;
34278;SDS011;20538;51.528;9.942;2022-12-07T00:18:51;23.48;;;10.63;;
34278;SDS011;20538;51.528;9.942;2022-12-07T00:23:44;20.67;;;11.52;;
34278;SDS011;20538;51.528;9.942;2022-12-07T00:26:13;23.00;;;10.98;;
34278;SDS011;20538;51.528;9.942;2022-12-07T00:28:40;19.58;;;10.98;;
34278;SDS011;20538;51.528;9.942;2022-12-07T00:31:07;23.35;;;11.70;;
34278;SDS011;20538;51.528;9.942;2022-12-07T00:33:34;20.23;;;11.15;;
34278;SDS011;20538;51.528;9.942;2022-12-07T00:36:01;23.35;;;11.73;;
34278;SDS011;20538;51.528;9.942;2022-12-07T00:38:29;22.95;;;12.30;;
34278;SDS011;20538;51.528;9.942;2022-12-07T00:41:00;19.88;;;11.13;;
34278;SDS011;20538;51.528;9.942;2022-12-07T00:43:27;22.50;;;11.48;;
34278;SDS011;20538;51.528;9.942;2022-12-07T00:45:53;20.27;;;10.90;;
34278;SDS011;20538;51.528;9.942;2022-12-07T00:48:20;21.08;;;11.48;;
34278;SDS011;20538;51.528;9.942;2022-12-07T00:50:46;23.45;;;12.35;;
34278;SDS011;20538;51.528;9.942;2022-12-07T00:53:12;22.23;;;11.18;;
34278;SDS011;20538;51.528;9.942;2022-12-07T00:55:38;21.50;;;11.98;;
34278;SDS011;20538;51.528;9.942;2022-12-07T00:58:04;22.83;;;11.35;;
34278;SDS011;20538;51.528;9.942;2022-12-07T01:00:30;22.70;;;11.77;;
34278;SDS011;20538;51.528;9.942;2022-12-07T01:02:55;23.35;;;12.50;;
34278;SDS011;20538;51.528;9.942;2022-12-07T01:05:21;22.27;;;11.45;;
34278;SDS011;20538;51.528;9.942;2022-12-07T01:07:47;26.02;;;12.27;;
34278;SDS011;20538;51.528;9.942;2022-12-07T01:10:13;25.98;;;12.80;;
34278;SDS011;20538;51.528;9.942;2022-12-07T01:12:39;21.73;;;10.60;;
34278;SDS011;20538;51.528;9.942;2022-12-07T01:15:05;23.88;;;12.40;;
34278;SDS011;20538;51.528;9.942;2022-12-07T01:17:31;25.98;;;13.02;;
34278;SDS011;20538;51.528;9.942;2022-12-07T01:19:57;29.63;;;13.18;;
34278;SDS011;20538;51.528;9.942;2022-12-07T01:22:23;28.10;;;13.25;;
34278;SDS011;20538;51.528;9.942;2022-12-07T01:24:48;23.25;;;12.25;;
34278;SDS011;20538;51.528;9.942;2022-12-07T01:27:14;30.30;;;13.05;;
34278;SDS011;20538;51.528;9.942;2022-12-07T01:29:40;26.73;;;12.45;;
34278;SDS011;20538;51.528;9.942;2022-12-07T01:32:05;22.23;;;11.82;;
34278;SDS011;20538;51.528;9.942;2022-12-07T01:34:31;23.98;;;12.57;;
34278;SDS011;20538;51.528;9.942;2022-12-07T01:36:57;26.23;;;12.93;;
34278;SDS011;20538;51.528;9.942;2022-12-07T01:39:23;25.23;;;13.23;;
34278;SDS011;20538;51.528;9.942;2022-12-07T01:41:49;23.50;;;12.82;;
34278;SDS011;20538;51.528;9.942;2022-12-07T01:44:25;26.55;;;12.27;;
34278;SDS011;20538;51.528;9.942;2022-12-07T01:46:58;27.80;;;13.65;;
34278;SDS011;20538;51.528;9.942;2022-12-07T01:52:01;29.23;;;13.98;;
34278;SDS011;20538;51.528;9.942;2022-12-07T01:54:42;32.75;;;15.07;;
34278;SDS011;20538;51.528;9.942;2022-12-07T01:57:10;24.73;;;13.20;;
34278;SDS011;20538;51.528;9.942;2022-12-07T01:59:38;23.77;;;12.88;;
34278;SDS011;20538;51.528;9.942;2022-12-07T02:02:07;26.88;;;13.52;;
34278;SDS011;20538;51.528;9.942;2022-12-07T02:04:38;25.80;;;14.32;;
34278;SDS011;20538;51.528;9.942;2022-12-07T02:07:04;28.58;;;13.52;;
34278;SDS011;20538;51.528;9.942;2022-12-07T02:09:31;26.23;;;14.02;;
34278;SDS011;20538;51.528;9.942;2022-12-07T02:11:56;23.98;;;13.00;;
34278;SDS011;20538;51.528;9.942;2022-12-07T02:14:22;23.02;;;13.07;;
34278;SDS011;20538;51.528;9.942;2022-12-07T02:28:04;28.23;;;13.35;;
34278;SDS011;20538;51.528;9.942;2022-12-07T02:30:45;21.17;;;11.63;;
34278;SDS011;20538;51.528;9.942;2022-12-07T02:33:14;22.40;;;12.63;;
34278;SDS011;20538;51.528;9.942;2022-12-07T02:35:53;22.60;;;12.02;;
34278;SDS011;20538;51.528;9.942;2022-12-07T02:38:25;25.10;;;13.38;;
34278;SDS011;20538;51.528;9.942;2022-12-07T02:45:48;20.50;;;11.60;;
34278;SDS011;20538;51.528;9.942;2022-12-07T02:48:17;24.67;;;12.40;;
34278;SDS011;20538;51.528;9.942;2022-12-07T02:50:47;21.30;;;11.35;;
34278;SDS011;20538;51.528;9.942;2022-12-07T02:56:02;23.23;;;12.80;;
34278;SDS011;20538;51.528;9.942;2022-12-07T02:58:41;25.25;;;12.93;;
34278;SDS011;20538;51.528;9.942;2022-12-07T03:04:18;24.25;;;12.57;;
34278;SDS011;20538;51.528;9.942;2022-12-07T03:06:49;24.55;;;13.40;;
34278;SDS011;20538;51.528;9.942;2022-12-07T03:09:35;22.50;;;12.25;;
34278;SDS011;20538;51.528;9.942;2022-12-07T03:12:08;23.70;;;12.05;;
34278;SDS011;20538;51.528;9.942;2022-12-07T03:14:40;24.20;;;12.52;;
34278;SDS011;20538;51.528;9.942;2022-12-07T03:17:16;22.73;;;12.85;;
34278;SDS011;20538;51.528;9.942;2022-12-07T03:19:46;20.83;;;12.02;;
34278;SDS011;20538;51.528;9.942;2022-12-07T03:22:14;21.92;;;12.18;;
34278;SDS011;20538;51.528;9.942;2022-12-07T03:24:49;28.20;;;12.60;;
34278;SDS011;20538;51.528;9.942;2022-12-07T03:27:20;22.90;;;12.25;;
34278;SDS011;20538;51.528;9.942;2022-12-07T03:29:50;23.95;;;13.85;;
34278;SDS011;20538;51.528;9.942;2022-12-07T03:34:57;27.27;;;14.00;;
34278;SDS011;20538;51.528;9.942;2022-12-07T03:37:36;26.05;;;13.73;;
34278;SDS011;20538;51.528;9.942;2022-12-07T03:40:19;29.63;;;14.10;;
34278;SDS011;20538;51.528;9.942;2022-12-07T03:42:50;29.58;;;15.13;;
34278;SDS011;20538;51.528;9.942;2022-12-07T03:45:18;29.70;;;15.25;;
34278;SDS011;20538;51.528;9.942;2022-12-07T03:47:51;28.38;;;15.05;;
34278;SDS011;20538;51.528;9.942;2022-12-07T03:51:20;29.42;;;15.27;;
34278;SDS011;20538;51.528;9.942;2022-12-07T03:53:43;31.02;;;14.90;;
34278;SDS011;20538;51.528;9.942;2022-12-07T03:56:30;29.92;;;14.55;;
34278;SDS011;20538;51.528;9.942;2022-12-07T03:58:57;38.75;;;17.45;;
34278;SDS011;20538;51.528;9.942;2022-12-07T04:01:24;33.03;;;17.40;;
34278;SDS011;20538;51.528;9.942;2022-12-07T04:03:50;32.92;;;16.58;;
34278;SDS011;20538;51.528;9.942;2022-12-07T04:06:16;27.15;;;14.48;;
34278;SDS011;20538;51.528;9.942;2022-12-07T04:08:42;30.42;;;14.95;;
34278;SDS011;20538;51.528;9.942;2022-12-07T04:11:07;29.13;;;14.80;;
34278;SDS011;20538;51.528;9.942;2022-12-07T04:13:33;29.23;;;15.65;;
34278;SDS011;20538;51.528;9.942;2022-12-07T04:16:19;26.88;;;13.77;;
34278;SDS011;20538;51.528;9.942;2022-12-07T04:18:44;25.77;;;13.77;;
34278;SDS011;20538;51.528;9.942;2022-12-07T04:21:10;29.15;;;14.82;;
34278;SDS011;20538;51.528;9.942;2022-12-07T04:23:36;29.90;;;15.48;;
34278;SDS011;20538;51.528;9.942;2022-12-07T04:26:01;29.80;;;15.07;;
34278;SDS011;20538;51.528;9.942;2022-12-07T04:28:27;36.92;;;16.77;;
34278;SDS011;20538;51.528;9.942;2022-12-07T04:30:53;33.10;;;16.33;;
34278;SDS011;20538;51.528;9.942;2022-12-07T04:33:18;35.15;;;17.30;;
34278;SDS011;20538;51.528;9.942;2022-12-07T04:35:44;36.13;;;17.10;;
34278;SDS011;20538;51.528;9.942;2022-12-07T04:38:09;32.53;;;16.48;;
34278;SDS011;20538;51.528;9.942;2022-12-07T04:40:35;35.50;;;16.90;;
34278;SDS011;20538;51.528;9.942;2022-12-07T04:43:01;33.97;;;16.80;;
34278;SDS011;20538;51.528;9.942;2022-12-07T04:45:26;37.92;;;17.98;;
34278;SDS011;20538;51.528;9.942;2022-12-07T04:47:52;35.03;;;18.05;;
34278;SDS011;20538;51.528;9.942;2022-12-07T04:50:18;42.53;;;18.88;;
34278;SDS011;20538;51.528;9.942;2022-12-07T04:52:43;38.92;;;17.92;;
34278;SDS011;20538;51.528;9.942;2022-12-07T04:55:09;43.25;;;19.83;;
34278;SDS011;20538;51.528;9.942;2022-12-07T04:57:34;38.97;;;19.48;;
34278;SDS011;20538;51.528;9.942;2022-12-07T05:00:00;40.85;;;18.02;;
34278;SDS011;20538;51.528;9.942;2022-12-07T05:02:26;41.83;;;19.38;;
34278;SDS011;20538;51.528;9.942;2022-12-07T05:04:51;40.55;;;18.52;;
34278;SDS011;20538;51.528;9.942;2022-12-07T05:07:17;42.17;;;18.52;;
34278;SDS011;20538;51.528;9.942;2022-12-07T05:09:42;34.38;;;17.33;;
34278;SDS011;20538;51.528;9.942;2022-12-07T05:12:08;44.40;;;19.67;;
34278;SDS011;20538;51.528;9.942;2022-12-07T05:14:34;39.47;;;17.60;;
34278;SDS011;20538;51.528;9.942;2022-12-07T05:16:59;40.50;;;18.90;;
34278;SDS011;20538;51.528;9.942;2022-12-07T05:19:25;39.78;;;18.08;;
34278;SDS011;20538;51.528;9.942;2022-12-07T05:21:51;34.30;;;17.02;;
34278;SDS011;20538;51.528;9.942;2022-12-07T05:24:17;42.83;;;18.38;;
34278;SDS011;20538;51.528;9.942;2022-12-07T05:26:43;37.15;;;17.27;;
34278;SDS011;20538;51.528;9.942;2022-12-07T05:29:13;37.25;;;17.48;;
34278;SDS011;20538;51.528;9.942;2022-12-07T05:31:40;35.80;;;16.80;;
34278;SDS011;20538;51.528;9.942;2022-12-07T05:34:06;36.72;;;17.52;;
34278;SDS011;20538;51.528;9.942;2022-12-07T05:36:32;36.38;;;16.67;;
34278;SDS011;20538;51.528;9.942;2022-12-07T05:38:58;39.08;;;17.27;;
34278;SDS011;20538;51.528;9.942;2022-12-07T05:41:23;41.00;;;16.88;;
34278;SDS011;20538;51.528;9.942;2022-12-07T05:44:08;36.72;;;17.00;;
34278;SDS011;20538;51.528;9.942;2022-12-07T05:46:33;34.38;;;15.23;;
34278;SDS011;20538;51.528;9.942;2022-12-07T05:48:59;30.48;;;14.10;;
34278;SDS011;20538;51.528;9.942;2022-12-07T05:51:25;28.27;;;15.07;;
34278;SDS011;20538;51.528;9.942;2022-12-07T05:53:51;30.73;;;15.68;;
34278;SDS011;20538;51.528;9.942;2022-12-07T05:56:16;29.10;;;15.52;;
34278;SDS011;20538;51.528;9.942;2022-12-07T05:58:43;32.50;;;14.77;;
34278;SDS011;20538;51.528;9.942;2022-12-07T06:01:27;24.73;;;12.73;;
34278;SDS011;20538;51.528;9.942;2022-12-07T06:03:53;32.63;;;14.65;;
34278;SDS011;20538;51.528;9.942;2022-12-07T06:06:18;32.35;;;14.40;;
34278;SDS011;20538;51.528;9.942;2022-12-07T06:08:44;29.63;;;13.43;;
34278;SDS011;20538;51.528;9.942;2022-12-07T06:11:10;25.95;;;12.88;;
34278;SDS011;20538;51.528;9.942;2022-12-07T06:13:54;27.95;;;12.77;;
34278;SDS011;20538;51.528;9.942;2022-12-07T06:16:19;26.42;;;12.15;;
34278;SDS011;20538;51.528;9.942;2022-12-07T06:18:45;26.58;;;12.10;;
34278;SDS011;20538;51.528;9.942;2022-12-07T06:21:11;25.90;;;12.38;;
34278;SDS011;20538;51.528;9.942;2022-12-07T06:23:37;28.13;;;11.80;;
34278;SDS011;20538;51.528;9.942;2022-12-07T06:26:02;29.30;;;11.93;;
34278;SDS011;20538;51.528;9.942;2022-12-07T06:28:28;26.20;;;11.50;;
34278;SDS011;20538;51.528;9.942;2022-12-07T06:30:57;24.90;;;12.52;;
34278;SDS011;20538;51.528;9.942;2022-12-07T06:33:24;27.17;;;12.77;;
34278;SDS011;20538;51.528;9.942;2022-12-07T06:35:50;31.25;;;12.90;;
34278;SDS011;20538;51.528;9.942;2022-12-07T06:38:16;30.00;;;11.98;;
34278;SDS011;20538;51.528;9.942;2022-12-07T06:40:42;28.08;;;12.63;;
34278;SDS011;20538;51.528;9.942;2022-12-07T06:43:07;25.98;;;13.38;;
34278;SDS011;20538;51.528;9.942;2022-12-07T06:45:33;21.98;;;12.13;;
34278;SDS011;20538;51.528;9.942;2022-12-07T06:47:58;28.83;;;11.80;;
34278;SDS011;20538;51.528;9.942;2022-12-07T06:50:24;29.95;;;11.95;;
34278;SDS011;20538;51.528;9.942;2022-12-07T06:52:50;29.88;;;13.05;;
34278;SDS011;20538;51.528;9.942;2022-12-07T06:55:16;22.17;;;11.60;;
34278;SDS011;20538;51.528;9.942;2022-12-07T06:57:42;23.80;;;10.88;;
34278;SDS011;20538;51.528;9.942;2022-12-07T07:00:08;23.17;;;10.57;;
34278;SDS011;20538;51.528;9.942;2022-12-07T07:02:34;22.83;;;10.90;;
34278;SDS011;20538;51.528;9.942;2022-12-07T07:05:00;27.58;;;10.25;;
34278;SDS011;20538;51.528;9.942;2022-12-07T07:07:25;20.35;;;9.82;;
34278;SDS011;20538;51.528;9.942;2022-12-07T07:09:51;19.85;;;10.93;;
34278;SDS011;20538;51.528;9.942;2022-12-07T07:12:17;41.90;;;14.48;;
34278;SDS011;20538;51.528;9.942;2022-12-07T07:14:42;26.40;;;11.02;;
34278;SDS011;20538;51.528;9.942;2022-12-07T07:17:08;21.67;;;10.80;;
34278;SDS011;20538;51.528;9.942;2022-12-07T07:19:34;23.30;;;11.00;;
34278;SDS011;20538;51.528;9.942;2022-12-07T07:21:59;28.58;;;10.80;;
34278;SDS011;20538;51.528;9.942;2022-12-07T07:24:25;23.42;;;10.18;;
34278;SDS011;20538;51.528;9.942;2022-12-07T07:26:51;22.65;;;11.23;;
34278;SDS011;20538;51.528;9.942;2022-12-07T07:29:16;23.38;;;10.85;;
34278;SDS011;20538;51.528;9.942;2022-12-07T07:31:42;20.33;;;11.02;;
34278;SDS011;20538;51.528;9.942;2022-12-07T07:34:08;22.17;;;9.95;;
34278;SDS011;20538;51.528;9.942;2022-12-07T07:36:33;24.20;;;11.57;;
34278;SDS011;20538;51.528;9.942;2022-12-07T07:38:59;18.80;;;9.27;;
34278;SDS011;20538;51.528;9.942;2022-12-07T07:41:24;21.63;;;9.30;;
34278;SDS011;20538;51.528;9.942;2022-12-07T07:43:50;19.13;;;8.88;;
34278;SDS011;20538;51.528;9.942;2022-12-07T07:46:16;21.73;;;10.05;;
34278;SDS011;20538;51.528;9.942;2022-12-07T07:48:41;21.83;;;10.25;;
34278;SDS011;20538;51.528;9.942;2022-12-07T07:51:07;23.85;;;9.50;;
34278;SDS011;20538;51.528;9.942;2022-12-07T07:53:33;26.63;;;10.77;;
34278;SDS011;20538;51.528;9.942;2022-12-07T07:55:59;18.35;;;9.55;;
34278;SDS011;20538;51.528;9.942;2022-12-07T07:58:24;21.63;;;9.60;;
34278;SDS011;20538;51.528;9.942;2022-12-07T08:00:50;19.23;;;9.65;;
34278;SDS011;20538;51.528;9.942;2022-12-07T08:03:16;18.48;;;9.27;;
34278;SDS011;20538;51.528;9.942;2022-12-07T08:05:42;21.20;;;9.10;;
34278;SDS011;20538;51.528;9.942;2022-12-07T08:08:08;22.08;;;10.00;;
34278;SDS011;20538;51.528;9.942;2022-12-07T08:10:33;17.60;;;8.88;;
34278;SDS011;20538;51.528;9.942;2022-12-07T08:13:00;27.58;;;8.95;;
34278;SDS011;20538;51.528;9.942;2022-12-07T08:15:40;19.88;;;8.55;;
34278;SDS011;20538;51.528;9.942;2022-12-07T08:18:07;17.42;;;7.93;;
34278;SDS011;20538;51.528;9.942;2022-12-07T08:20:34;19.00;;;8.50;;
34278;SDS011;20538;51.528;9.942;2022-12-07T08:23:01;21.05;;;8.38;;
34278;SDS011;20538;51.528;9.942;2022-12-07T08:25:27;15.32;;;8.27;;
34278;SDS011;20538;51.528;9.942;2022-12-07T08:27:53;15.35;;;7.53;;
34278;SDS011;20538;51.528;9.942;2022-12-07T08:30:19;22.65;;;7.15;;
34278;SDS011;20538;51.528;9.942;2022-12-07T08:32:47;19.70;;;6.75;;
34278;SDS011;20538;51.528;9.942;2022-12-07T08:35:13;14.60;;;6.82;;
34278;SDS011;20538;51.528;9.942;2022-12-07T08:37:39;14.38;;;8.10;;
34278;SDS011;20538;51.528;9.942;2022-12-07T08:40:06;14.02;;;7.22;;
34278;SDS011;20538;51.528;9.942;2022-12-07T08:42:33;18.40;;;6.07;;
34278;SDS011;20538;51.528;9.942;2022-12-07T08:45:09;16.98;;;6.22;;
34278;SDS011;20538;51.528;9.942;2022-12-07T08:47:41;11.50;;;6.60;;
34278;SDS011;20538;51.528;9.942;2022-12-07T08:50:10;13.48;;;6.72;;
34278;SDS011;20538;51.528;9.942;2022-12-07T08:52:37;13.27;;;6.55;;
34278;SDS011;20538;51.528;9.942;2022-12-07T08:55:04;14.82;;;6.90;;
34278;SDS011;20538;51.528;9.942;2022-12-07T08:57:30;16.80;;;6.00;;
34278;SDS011;20538;51.528;9.942;2022-12-07T08:59:59;15.18;;;5.93;;
34278;SDS011;20538;51.528;9.942;2022-12-07T09:02:25;13.32;;;5.95;;
34278;SDS011;20538;51.528;9.942;2022-12-07T09:04:51;14.07;;;6.38;;
34278;SDS011;20538;51.528;9.942;2022-12-07T09:07:16;12.05;;;6.40;;
34278;SDS011;20538;51.528;9.942;2022-12-07T09:09:42;12.73;;;6.97;;
34278;SDS011;20538;51.528;9.942;2022-12-07T09:12:08;12.73;;;6.43;;
34278;SDS011;20538;51.528;9.942;2022-12-07T09:14:35;13.93;;;6.75;;
34278;SDS011;20538;51.528;9.942;2022-12-07T09:17:07;14.90;;;6.43;;
34278;SDS011;20538;51.528;9.942;2022-12-07T09:19:34;17.40;;;8.18;;
34278;SDS011;20538;51.528;9.942;2022-12-07T09:22:00;16.33;;;7.68;;
34278;SDS011;20538;51.528;9.942;2022-12-07T09:24:26;17.85;;;7.15;;
34278;SDS011;20538;51.528;9.942;2022-12-07T09:26:52;13.05;;;7.03;;
34278;SDS011;20538;51.528;9.942;2022-12-07T09:29:17;13.70;;;6.57;;
34278;SDS011;20538;51.528;9.942;2022-12-07T09:31:43;14.07;;;7.00;;
34278;SDS011;20538;51.528;9.942;2022-12-07T09:34:08;15.35;;;7.25;;
34278;SDS011;20538;51.528;9.942;2022-12-07T09:36:34;12.73;;;6.57;;
34278;SDS011;20538;51.528;9.942;2022-12-07T09:39:00;13.63;;;5.43;;
34278;SDS011;20538;51.528;9.942;2022-12-07T09:41:26;13.93;;;7.57;;
34278;SDS011;20538;51.528;9.942;2022-12-07T09:43:56;12.63;;;6.45;;
34278;SDS011;20538;51.528;9.942;2022-12-07T09:46:48;15.15;;;6.35;;
34278;SDS011;20538;51.528;9.942;2022-12-07T09:49:16;15.45;;;6.05;;
34278;SDS011;20538;51.528;9.942;2022-12-07T09:51:44;12.25;;;6.18;;
34278;SDS011;20538;51.528;9.942;2022-12-07T09:54:15;17.73;;;6.18;;
34278;SDS011;20538;51.528;9.942;2022-12-07T09:56:42;12.35;;;6.05;;
34278;SDS011;20538;51.528;9.942;2022-12-07T09:59:16;7.28;;;4.82;;
34278;SDS011;20538;51.528;9.942;2022-12-07T10:01:43;16.55;;;6.43;;
34278;SDS011;20538;51.528;9.942;2022-12-07T10:04:29;17.98;;;6.03;;
34278;SDS011;20538;51.528;9.942;2022-12-07T10:06:55;13.43;;;5.40;;
34278;SDS011;20538;51.528;9.942;2022-12-07T10:09:21;10.18;;;5.07;;
34278;SDS011;20538;51.528;9.942;2022-12-07T10:14:28;12.63;;;5.25;;
34278;SDS011;20538;51.528;9.942;2022-12-07T10:16:55;14.50;;;5.50;;
34278;SDS011;20538;51.528;9.942;2022-12-07T10:21:59;12.30;;;5.47;;
34278;SDS011;20538;51.528;9.942;2022-12-07T10:24:36;12.18;;;4.97;;
34278;SDS011;20538;51.528;9.942;2022-12-07T10:27:04;13.10;;;5.00;;
34278;SDS011;20538;51.528;9.942;2022-12-07T10:29:38;8.13;;;4.93;;
34278;SDS011;20538;51.528;9.942;2022-12-07T10:34:39;7.88;;;4.15;;
34278;SDS011;20538;51.528;9.942;2022-12-07T10:39:44;9.13;;;4.57;;
34278;SDS011;20538;51.528;9.942;2022-12-07T10:42:27;7.72;;;2.78;;
34278;SDS011;20538;51.528;9.942;2022-12-07T10:50:29;15.80;;;4.78;;
34278;SDS011;20538;51.528;9.942;2022-12-07T10:56:29;12.30;;;4.78;;
34278;SDS011;20538;51.528;9.942;2022-12-07T11:01:53;10.18;;;4.18;;
34278;SDS011;20538;51.528;9.942;2022-12-07T11:18:59;10.20;;;4.55;;
34278;SDS011;20538;51.528;9.942;2022-12-07T11:37:51;10.02;;;4.45;;
34278;SDS011;20538;51.528;9.942;2022-12-07T11:40:25;8.65;;;4.45;;
34278;SDS011;20538;51.528;9.942;2022-12-07T11:43:14;11.40;;;5.38;;
34278;SDS011;20538;51.528;9.942;2022-12-07T11:46:01;14.18;;;4.20;;
34278;SDS011;20538;51.528;9.942;2022-12-07T11:48:35;12.43;;;4.68;;
34278;SDS011;20538;51.528;9.942;2022-12-07T11:51:29;10.05;;;3.97;;
34278;SDS011;20538;51.528;9.942;2022-12-07T11:54:01;6.95;;;3.85;;
34278;SDS011;20538;51.528;9.942;2022-12-07T11:56:36;8.60;;;4.10;;
34278;SDS011;20538;51.528;9.942;2022-12-07T12:02:14;12.63;;;4.60;;
34278;SDS011;20538;51.528;9.942;2022-12-07T12:05:29;14.75;;;4.15;;
34278;SDS011;20538;51.528;9.942;2022-12-07T12:07:32;11.45;;;4.57;;
34278;SDS011;20538;51.528;9.942;2022-12-07T12:09:59;8.57;;;4.53;;
34278;SDS011;20538;51.528;9.942;2022-12-07T12:15:38;12.63;;;4.05;;
34278;SDS011;20538;51.528;9.942;2022-12-07T12:21:41;8.98;;;3.63;;
34278;SDS011;20538;51.528;9.942;2022-12-07T12:24:14;7.05;;;4.13;;
34278;SDS011;20538;51.528;9.942;2022-12-07T12:26:48;7.15;;;2.92;;
34278;SDS011;20538;51.528;9.942;2022-12-07T12:34:38;6.18;;;3.20;;
34278;SDS011;20538;51.528;9.942;2022-12-07T12:42:45;7.68;;;3.17;;
34278;SDS011;20538;51.528;9.942;2022-12-07T12:45:20;9.32;;;3.63;;
34278;SDS011;20538;51.528;9.942;2022-12-07T12:50:19;7.43;;;3.45;;
34278;SDS011;20538;51.528;9.942;2022-12-07T12:52:53;6.50;;;3.80;;
34278;SDS011;20538;51.528;9.942;2022-12-07T12:55:29;9.32;;;4.20;;
34278;SDS011;20538;51.528;9.942;2022-12-07T12:58:29;11.60;;;4.28;;
34278;SDS011;20538;51.528;9.942;2022-12-07T13:04:12;9.55;;;3.35;;
34278;SDS011;20538;51.528;9.942;2022-12-07T13:06:48;11.15;;;3.33;;
34278;SDS011;20538;51.528;9.942;2022-12-07T13:09:21;7.45;;;3.50;;
34278;SDS011;20538;51.528;9.942;2022-12-07T13:12:00;14.18;;;3.50;;
34278;SDS011;20538;51.528;9.942;2022-12-07T13:27:42;13.73;;;3.63;;
34278;SDS011;20538;51.528;9.942;2022-12-07T13:30:16;11.73;;;4.18;;
34278;SDS011;20538;51.528;9.942;2022-12-07T13:32:50;11.70;;;3.78;;
34278;SDS011;20538;51.528;9.942;2022-12-07T13:38:03;9.70;;;3.33;;
34278;SDS011;20538;51.528;9.942;2022-12-07T13:40:40;11.68;;;4.05;;
34278;SDS011;20538;51.528;9.942;2022-12-07T13:43:19;10.23;;;3.72;;
34278;SDS011;20538;51.528;9.942;2022-12-07T13:45:44;13.18;;;3.72;;
34278;SDS011;20538;51.528;9.942;2022-12-07T13:48:32;12.20;;;4.57;;
34278;SDS011;20538;51.528;9.942;2022-12-07T13:51:02;10.48;;;4.20;;
34278;SDS011;20538;51.528;9.942;2022-12-07T13:53:29;10.90;;;4.00;;
34278;SDS011;20538;51.528;9.942;2022-12-07T13:55:56;10.77;;;4.22;;
34278;SDS011;20538;51.528;9.942;2022-12-07T13:58:26;12.25;;;4.05;;
34278;SDS011;20538;51.528;9.942;2022-12-07T14:00:56;14.90;;;4.50;;
34278;SDS011;20538;51.528;9.942;2022-12-07T14:03:27;15.32;;;4.75;;
34278;SDS011;20538;51.528;9.942;2022-12-07T14:09:07;7.20;;;4.03;;
34278;SDS011;20538;51.528;9.942;2022-12-07T14:11:47;10.82;;;3.58;;
34278;SDS011;20538;51.528;9.942;2022-12-07T14:14:16;11.73;;;3.67;;
34278;SDS011;20538;51.528;9.942;2022-12-07T14:16:54;7.30;;;3.83;;
34278;SDS011;20538;51.528;9.942;2022-12-07T14:19:40;13.43;;;4.30;;
34278;SDS011;20538;51.528;9.942;2022-12-07T14:22:24;12.30;;;3.85;;
34278;SDS011;20538;51.528;9.942;2022-12-07T14:24:50;9.80;;;4.00;;
34278;SDS011;20538;51.528;9.942;2022-12-07T14:27:23;11.40;;;4.55;;
34278;SDS011;20538;51.528;9.942;2022-12-07T14:29:55;14.85;;;3.92;;
34278;SDS011;20538;51.528;9.942;2022-12-07T14:32:23;8.98;;;3.90;;
34278;SDS011;20538;51.528;9.942;2022-12-07T14:34:54;9.88;;;4.20;;
34278;SDS011;20538;51.528;9.942;2022-12-07T14:37:24;12.63;;;4.63;;
34278;SDS011;20538;51.528;9.942;2022-12-07T14:39:50;15.95;;;4.95;;
34278;SDS011;20538;51.528;9.942;2022-12-07T14:42:16;11.43;;;4.47;;
34278;SDS011;20538;51.528;9.942;2022-12-07T14:44:42;10.48;;;4.22;;
34278;SDS011;20538;51.528;9.942;2022-12-07T14:47:09;15.65;;;5.38;;
34278;SDS011;20538;51.528;9.942;2022-12-07T14:49:36;8.95;;;3.60;;
34278;SDS011;20538;51.528;9.942;2022-12-07T14:52:02;13.05;;;4.18;;
34278;SDS011;20538;51.528;9.942;2022-12-07T14:54:29;14.27;;;5.05;;
34278;SDS011;20538;51.528;9.942;2022-12-07T14:56:57;19.65;;;4.47;;
34278;SDS011;20538;51.528;9.942;2022-12-07T14:59:23;13.77;;;4.20;;
34278;SDS011;20538;51.528;9.942;2022-12-07T15:01:51;9.13;;;4.03;;
34278;SDS011;20538;51.528;9.942;2022-12-07T15:04:17;8.32;;;3.83;;
34278;SDS011;20538;51.528;9.942;2022-12-07T15:06:54;8.52;;;4.05;;
34278;SDS011;20538;51.528;9.942;2022-12-07T15:09:22;10.68;;;4.15;;
34278;SDS011;20538;51.528;9.942;2022-12-07T15:11:48;12.02;;;4.03;;
34278;SDS011;20538;51.528;9.942;2022-12-07T15:14:13;9.98;;;3.83;;
34278;SDS011;20538;51.528;9.942;2022-12-07T15:16:40;13.05;;;4.70;;
34278;SDS011;20538;51.528;9.942;2022-12-07T15:19:17;14.38;;;4.47;;
34278;SDS011;20538;51.528;9.942;2022-12-07T15:21:44;12.52;;;4.00;;
34278;SDS011;20538;51.528;9.942;2022-12-07T15:24:13;20.00;;;4.80;;
34278;SDS011;20538;51.528;9.942;2022-12-07T15:26:40;12.00;;;4.45;;
34278;SDS011;20538;51.528;9.942;2022-12-07T15:29:06;13.07;;;5.60;;
34278;SDS011;20538;51.528;9.942;2022-12-07T15:31:32;13.93;;;4.70;;
34278;SDS011;20538;51.528;9.942;2022-12-07T15:33:59;15.02;;;4.55;;
34278;SDS011;20538;51.528;9.942;2022-12-07T15:36:25;12.48;;;4.70;;
34278;SDS011;20538;51.528;9.942;2022-12-07T15:38:53;13.88;;;4.32;;
34278;SDS011;20538;51.528;9.942;2022-12-07T15:41:19;13.38;;;5.18;;
34278;SDS011;20538;51.528;9.942;2022-12-07T15:43:46;12.73;;;4.10;;
34278;SDS011;20538;51.528;9.942;2022-12-07T15:46:30;11.55;;;4.20;;
34278;SDS011;20538;51.528;9.942;2022-12-07T15:48:57;12.02;;;4.78;;
34278;SDS011;20538;51.528;9.942;2022-12-07T15:51:23;17.70;;;4.18;;
34278;SDS011;20538;51.528;9.942;2022-12-07T15:53:49;14.70;;;4.35;;
34278;SDS011;20538;51.528;9.942;2022-12-07T15:56:17;14.20;;;4.70;;
34278;SDS011;20538;51.528;9.942;2022-12-07T15:58:43;17.73;;;5.65;;
34278;SDS011;20538;51.528;9.942;2022-12-07T16:01:10;14.82;;;5.40;;
34278;SDS011;20538;51.528;9.942;2022-12-07T16:03:40;18.27;;;5.80;;
34278;SDS011;20538;51.528;9.942;2022-12-07T16:06:06;17.67;;;5.38;;
34278;SDS011;20538;51.528;9.942;2022-12-07T16:08:42;15.05;;;5.63;;
34278;SDS011;20538;51.528;9.942;2022-12-07T16:11:09;13.82;;;5.22;;
34278;SDS011;20538;51.528;9.942;2022-12-07T16:13:35;19.42;;;6.05;;
34278;SDS011;20538;51.528;9.942;2022-12-07T16:16:05;14.30;;;6.18;;
34278;SDS011;20538;51.528;9.942;2022-12-07T16:18:32;14.85;;;6.78;;
34278;SDS011;20538;51.528;9.942;2022-12-07T16:21:01;20.48;;;6.60;;
34278;SDS011;20538;51.528;9.942;2022-12-07T16:23:27;13.27;;;6.32;;
34278;SDS011;20538;51.528;9.942;2022-12-07T16:25:53;14.40;;;6.18;;
34278;SDS011;20538;51.528;9.942;2022-12-07T16:28:19;19.70;;;7.03;;
34278;SDS011;20538;51.528;9.942;2022-12-07T16:30:45;15.40;;;6.20;;
34278;SDS011;20538;51.528;9.942;2022-12-07T16:33:11;15.98;;;6.45;;
34278;SDS011;20538;51.528;9.942;2022-12-07T16:35:40;18.48;;;6.57;;
34278;SDS011;20538;51.528;9.942;2022-12-07T16:38:06;18.35;;;7.40;;
34278;SDS011;20538;51.528;9.942;2022-12-07T16:40:32;19.90;;;8.57;;
34278;SDS011;20538;51.528;9.942;2022-12-07T16:42:57;23.55;;;9.23;;
34278;SDS011;20538;51.528;9.942;2022-12-07T16:45:23;23.23;;;9.27;;
34278;SDS011;20538;51.528;9.942;2022-12-07T16:47:49;20.88;;;9.02;;